createdAt,value
2022-07-31T00:00:43.230Z,97024.81
2022-07-31T00:01:45.315Z,97021.09
2022-07-31T00:02:47.263Z,97017.97
2022-07-31T00:03:49.389Z,97014.50
2022-07-31T00:04:51.355Z,97012.69
2022-07-31T00:05:53.418Z,97011.88
2022-07-31T00:06:55.468Z,97014.28
2022-07-31T00:08:01.193Z,97018.47
2022-07-31T00:09:03.959Z,97020.81
2022-07-31T00:10:06.806Z,97019.78
2022-07-31T00:11:11.861Z,97025.34
2022-07-31T00:12:14.818Z,97023.25
2022-07-31T00:13:16.901Z,97018.53
2022-07-31T00:14:18.857Z,97021.16
2022-07-31T00:15:21.559Z,97027.00
2022-07-31T00:16:24.049Z,97025.94
2022-07-31T00:17:26.912Z,97025.44
2022-07-31T00:18:28.959Z,97021.75
2022-07-31T00:19:30.942Z,97023.06
2022-07-31T00:20:32.971Z,97019.63
2022-07-31T00:21:35.059Z,97025.38
2022-07-31T00:22:37.049Z,97023.56
2022-07-31T00:23:38.935Z,97026.94
2022-07-31T00:24:40.956Z,97024.28
2022-07-31T00:25:42.915Z,97021.16
2022-07-31T00:26:44.977Z,97020.91
2022-07-31T00:27:47.160Z,97021.47
2022-07-31T00:28:49.139Z,97014.88
2022-07-31T00:29:51.845Z,97009.28
2022-07-31T00:30:53.857Z,97014.28
2022-07-31T00:32:00.132Z,97020.63
2022-07-31T00:33:03.578Z,97013.47
2022-07-31T00:34:05.571Z,97010.59
2022-07-31T00:35:07.868Z,97010.06
2022-07-31T00:36:10.540Z,97012.47
2022-07-31T00:37:12.778Z,97010.59
2022-07-31T00:38:30.105Z,97008.97
2022-07-31T00:39:32.833Z,97008.97
2022-07-31T00:40:34.751Z,97015.63
2022-07-31T00:41:44.691Z,97016.19
2022-07-31T00:42:46.734Z,97008.53
2022-07-31T00:43:48.693Z,97018.63
2022-07-31T00:44:52.400Z,97015.19
2022-07-31T00:45:59.027Z,97013.59
2022-07-31T00:47:01.882Z,97016.44
2022-07-31T00:48:04.770Z,97014.09
2022-07-31T00:49:12.318Z,97015.88
2022-07-31T00:50:14.451Z,97012.41
2022-07-31T00:51:16.377Z,97011.63
2022-07-31T00:52:18.353Z,97010.22
2022-07-31T00:53:20.396Z,97017.34
2022-07-31T00:54:22.690Z,97020.78
2022-07-31T00:55:25.903Z,97019.97
2022-07-31T00:56:27.901Z,97019.47
2022-07-31T00:57:29.872Z,97022.66
2022-07-31T00:58:31.980Z,97021.88
2022-07-31T00:59:34.110Z,97022.09
2022-07-31T01:00:36.087Z,97021.06
2022-07-31T01:01:38.077Z,97022.41
2022-07-31T01:02:46.680Z,97028.78
2022-07-31T01:03:49.199Z,97020.06
2022-07-31T01:04:50.956Z,97020.88
2022-07-31T01:05:52.979Z,97019.00
2022-07-31T01:06:55.540Z,97022.19
2022-07-31T01:07:57.582Z,97019.31
2022-07-31T01:08:59.672Z,97021.16
2022-07-31T01:10:05.539Z,97025.63
2022-07-31T01:11:16.234Z,97029.88
2022-07-31T01:12:38.888Z,97028.03
2022-07-31T01:13:44.005Z,97031.75
2022-07-31T01:14:52.858Z,97024.84
2022-07-31T01:15:55.801Z,97034.63
2022-07-31T01:17:00.387Z,97031.75
2022-07-31T01:18:02.795Z,97027.47
2022-07-31T01:19:37.997Z,97037.81
2022-07-31T01:20:47.755Z,97034.38
2022-07-31T01:22:33.505Z,97028.03
2022-07-31T01:23:50.967Z,97028.28
2022-07-31T01:25:06.221Z,97030.66
2022-07-31T01:26:24.378Z,97034.28
2022-07-31T01:27:30.489Z,97030.59
2022-07-31T01:28:56.566Z,97031.13
2022-07-31T01:30:03.423Z,97035.13
2022-07-31T01:31:26.210Z,97031.13
2022-07-31T01:32:41.057Z,97035.13
2022-07-31T01:34:27.285Z,97037.03
2022-07-31T01:35:35.554Z,97042.84
2022-07-31T01:36:42.438Z,97040.75
2022-07-31T01:37:48.565Z,97039.69
2022-07-31T01:38:53.229Z,97036.03
2022-07-31T01:40:10.310Z,97036.59
2022-07-31T01:41:15.835Z,97033.97
2022-07-31T01:42:20.054Z,97034.41
2022-07-31T01:43:23.015Z,97027.53
2022-07-31T01:44:27.239Z,97029.94
2022-07-31T01:45:30.431Z,97033.88
2022-07-31T01:46:37.316Z,97032.53
2022-07-31T01:47:43.790Z,97025.38
2022-07-31T01:48:46.841Z,97024.91
2022-07-31T01:49:50.482Z,97033.31
2022-07-31T01:50:53.320Z,97021.97
2022-07-31T01:51:56.116Z,97029.09
2022-07-31T01:53:07.450Z,97030.91
2022-07-31T01:54:10.332Z,97026.44
2022-07-31T01:55:13.885Z,97019.84
2022-07-31T01:56:17.655Z,97017.53
2022-07-31T01:57:20.473Z,97027.84
2022-07-31T01:58:24.367Z,97026.81
2022-07-31T01:59:26.249Z,97027.34
2022-07-31T02:00:34.087Z,97019.19
2022-07-31T02:01:38.374Z,97024.47
2022-07-31T02:02:43.234Z,97032.94
2022-07-31T02:03:45.903Z,97030.31
2022-07-31T02:04:53.846Z,97036.13
2022-07-31T02:05:56.084Z,97036.69
2022-07-31T02:06:58.671Z,97034.59
2022-07-31T02:08:01.263Z,97026.41
2022-07-31T02:09:03.402Z,97026.13
2022-07-31T02:10:05.640Z,97022.44
2022-07-31T02:11:08.522Z,97026.94
2022-07-31T02:12:14.723Z,97021.91
2022-07-31T02:13:18.081Z,97019.25
2022-07-31T02:14:21.268Z,97018.19
2022-07-31T02:15:24.613Z,97029.31
2022-07-31T02:16:27.315Z,97023.78
2022-07-31T02:17:29.575Z,97021.94
2022-07-31T02:18:31.511Z,97019.28
2022-07-31T02:19:35.370Z,97028.03
2022-07-31T02:20:40.219Z,97023.00
2022-07-31T02:21:42.306Z,97025.66
2022-07-31T02:22:44.143Z,97028.28
2022-07-31T02:23:45.947Z,97024.56
2022-07-31T02:24:47.755Z,97022.44
2022-07-31T02:25:49.532Z,97020.31
2022-07-31T02:26:51.954Z,97026.94
2022-07-31T02:27:58.575Z,97025.88
2022-07-31T02:29:01.609Z,97025.88
2022-07-31T02:30:04.481Z,97022.44
2022-07-31T02:31:10.503Z,97017.72
2022-07-31T02:32:12.968Z,97024.56
2022-07-31T02:33:18.402Z,97018.25
2022-07-31T02:34:20.310Z,97021.44
2022-07-31T02:35:31.371Z,97023.03
2022-07-31T02:36:34.516Z,97019.34
2022-07-31T02:37:37.684Z,97027.03
2022-07-31T02:38:40.517Z,97024.38
2022-07-31T02:39:43.069Z,97024.13
2022-07-31T02:40:45.537Z,97020.94
2022-07-31T02:41:47.653Z,97022.78
2022-07-31T02:42:50.227Z,97025.41
2022-07-31T02:43:52.917Z,97019.88
2022-07-31T02:44:55.234Z,97019.63
2022-07-31T02:45:57.670Z,97017.25
2022-07-31T02:47:02.718Z,97025.19
2022-07-31T02:48:04.891Z,97021.22
2022-07-31T02:49:07.596Z,97024.41
2022-07-31T02:50:09.636Z,97033.41
2022-07-31T02:51:11.494Z,97022.03
2022-07-31T02:52:15.124Z,97019.41
2022-07-31T02:53:17.090Z,97026.25
2022-07-31T02:54:19.027Z,97021.75
2022-07-31T02:55:20.867Z,97029.69
2022-07-31T02:56:23.717Z,97017.28
2022-07-31T02:57:27.291Z,97028.91
2022-07-31T02:58:29.245Z,97024.41
2022-07-31T02:59:31.232Z,97027.06
2022-07-31T03:00:33.179Z,97024.41
2022-07-31T03:01:36.303Z,97025.22
2022-07-31T03:02:38.137Z,97019.13
2022-07-31T03:03:40.626Z,97024.41
2022-07-31T03:04:42.839Z,97020.97
2022-07-31T03:05:44.676Z,97023.63
2022-07-31T03:06:48.869Z,97027.88
2022-07-31T03:07:50.776Z,97029.97
2022-07-31T03:08:52.620Z,97019.13
2022-07-31T03:09:54.533Z,97022.03
2022-07-31T03:10:57.164Z,97023.63
2022-07-31T03:12:04.910Z,97017.78
2022-07-31T03:13:07.957Z,97023.31
2022-07-31T03:14:10.900Z,97025.19
2022-07-31T03:15:17.465Z,97022.53
2022-07-31T03:16:19.669Z,97028.38
2022-07-31T03:17:21.642Z,97022.03
2022-07-31T03:18:24.185Z,97021.75
2022-07-31T03:19:26.547Z,97017.03
2022-07-31T03:20:29.403Z,97014.38
2022-07-31T03:21:31.434Z,97019.41
2022-07-31T03:22:33.754Z,97022.81
2022-07-31T03:23:38.753Z,97023.63
2022-07-31T03:24:40.610Z,97015.97
2022-07-31T03:25:43.135Z,97016.22
2022-07-31T03:26:45.244Z,97020.47
2022-07-31T03:27:52.722Z,97020.47
2022-07-31T03:28:59.943Z,97021.03
2022-07-31T03:30:01.902Z,97006.19
2022-07-31T03:31:03.938Z,97013.88
2022-07-31T03:32:06.756Z,97012.81
2022-07-31T03:33:08.719Z,97015.47
2022-07-31T03:34:12.089Z,97013.63
2022-07-31T03:35:14.019Z,97014.41
2022-07-31T03:36:15.921Z,97012.56
2022-07-31T03:37:17.786Z,97009.91
2022-07-31T03:38:39.165Z,97006.50
2022-07-31T03:39:42.149Z,97014.41
2022-07-31T03:40:43.959Z,97010.44
2022-07-31T03:41:46.631Z,97015.72
2022-07-31T03:42:49.383Z,97018.63
2022-07-31T03:43:51.240Z,97016.78
2022-07-31T03:44:53.186Z,97009.09
2022-07-31T03:45:55.195Z,97017.56
2022-07-31T03:46:57.057Z,97018.38
2022-07-31T03:47:58.997Z,97012.28
2022-07-31T03:49:01.176Z,97021.03
2022-07-31T03:50:04.107Z,97019.41
2022-07-31T03:51:06.734Z,97026.31
2022-07-31T03:52:11.994Z,97023.41
2022-07-31T03:53:14.680Z,97029.50
2022-07-31T03:54:16.899Z,97021.03
2022-07-31T03:55:18.708Z,97021.03
2022-07-31T03:56:21.423Z,97018.38
2022-07-31T03:57:28.729Z,97013.88
2022-07-31T03:58:33.244Z,97019.97
2022-07-31T03:59:40.493Z,97024.72
2022-07-31T04:00:47.731Z,97023.66
2022-07-31T04:02:10.268Z,97030.53
2022-07-31T04:03:13.459Z,97027.91
2022-07-31T04:04:17.816Z,97017.31
2022-07-31T04:05:20.159Z,97019.97
2022-07-31T04:06:21.949Z,97021.56
2022-07-31T04:07:24.285Z,97020.25
2022-07-31T04:08:26.114Z,97025.31
2022-07-31T04:09:27.911Z,97028.72
2022-07-31T04:10:29.785Z,97026.88
2022-07-31T04:11:31.545Z,97027.41
2022-07-31T04:12:33.373Z,97034.31
2022-07-31T04:13:37.271Z,97022.69
2022-07-31T04:14:39.105Z,97021.63
2022-07-31T04:15:40.976Z,97025.88
2022-07-31T04:16:42.822Z,97024.28
2022-07-31T04:17:44.603Z,97025.88
2022-07-31T04:18:47.797Z,97027.72
2022-07-31T04:19:52.822Z,97025.06
2022-07-31T04:20:55.145Z,97030.38
2022-07-31T04:21:58.181Z,97028.75
2022-07-31T04:22:59.982Z,97022.69
2022-07-31T04:24:01.888Z,97035.91
2022-07-31T04:25:04.257Z,97028.75
2022-07-31T04:26:06.207Z,97034.88
2022-07-31T04:27:12.703Z,97027.97
2022-07-31T04:28:14.864Z,97031.16
2022-07-31T04:29:17.181Z,97031.16
2022-07-31T04:30:19.024Z,97030.59
2022-07-31T04:31:20.924Z,97030.06
2022-07-31T04:32:22.722Z,97027.19
2022-07-31T04:33:27.193Z,97037.75
2022-07-31T04:34:30.596Z,97036.69
2022-07-31T04:35:32.452Z,97039.34
2022-07-31T04:36:34.319Z,97040.16
2022-07-31T04:37:36.102Z,97048.88
2022-07-31T04:38:37.933Z,97046.25
2022-07-31T04:39:39.828Z,97035.91
2022-07-31T04:40:41.804Z,97038.53
2022-07-31T04:41:44.462Z,97038.53
2022-07-31T04:42:46.257Z,97033.25
2022-07-31T04:43:48.621Z,97035.13
2022-07-31T04:44:52.342Z,97032.47
2022-07-31T04:45:58.000Z,97038.78
2022-07-31T04:47:00.840Z,97040.66
2022-07-31T04:48:02.641Z,97047.78
2022-07-31T04:49:04.716Z,97052.31
2022-07-31T04:50:06.762Z,97045.41
2022-07-31T04:51:08.586Z,97042.72
2022-07-31T04:52:15.417Z,97041.91
2022-07-31T04:53:17.186Z,97039.78
2022-07-31T04:54:19.050Z,97041.09
2022-07-31T04:55:21.320Z,97040.56
2022-07-31T04:56:42.322Z,97041.38
2022-07-31T04:57:45.585Z,97040.34
2022-07-31T04:58:47.425Z,97040.88
2022-07-31T04:59:59.050Z,97037.44
2022-07-31T05:01:02.899Z,97037.69
2022-07-31T05:02:04.936Z,97040.88
2022-07-31T05:03:07.014Z,97040.63
2022-07-31T05:04:09.769Z,97046.72
2022-07-31T05:05:11.580Z,97048.84
2022-07-31T05:06:14.573Z,97043.28
2022-07-31T05:07:16.473Z,97052.56
2022-07-31T05:08:18.262Z,97051.53
2022-07-31T05:09:25.558Z,97045.16
2022-07-31T05:10:47.901Z,97055.50
2022-07-31T05:11:50.325Z,97044.69
2022-07-31T05:12:52.142Z,97051.56
2022-07-31T05:13:55.311Z,97051.31
2022-07-31T05:14:57.053Z,97056.59
2022-07-31T05:15:58.837Z,97047.63
2022-07-31T05:17:00.670Z,97047.63
2022-07-31T05:18:02.570Z,97050.75
2022-07-31T05:19:05.396Z,97045.72
2022-07-31T05:20:15.421Z,97053.41
2022-07-31T05:21:17.299Z,97049.19
2022-07-31T05:22:19.111Z,97050.50
2022-07-31T05:23:21.085Z,97052.91
2022-07-31T05:24:33.407Z,97057.66
2022-07-31T05:25:35.866Z,97051.81
2022-07-31T05:26:39.023Z,97053.41
2022-07-31T05:27:41.362Z,97052.38
2022-07-31T05:28:43.858Z,97059.50
2022-07-31T05:29:48.579Z,97054.19
2022-07-31T05:30:50.371Z,97064.00
2022-07-31T05:32:00.204Z,97057.13
2022-07-31T05:33:12.351Z,97055.81
2022-07-31T05:34:15.851Z,97059.78
2022-07-31T05:35:17.711Z,97055.31
2022-07-31T05:36:20.026Z,97059.78
2022-07-31T05:37:21.783Z,97056.09
2022-07-31T05:38:23.661Z,97064.03
2022-07-31T05:39:25.574Z,97062.19
2022-07-31T05:40:27.478Z,97064.34
2022-07-31T05:41:31.021Z,97056.41
2022-07-31T05:42:32.922Z,97052.94
2022-07-31T05:43:34.710Z,97060.09
2022-07-31T05:44:36.480Z,97059.28
2022-07-31T05:45:39.327Z,97061.94
2022-07-31T05:46:41.332Z,97067.78
2022-07-31T05:47:43.061Z,97066.69
2022-07-31T05:48:45.347Z,97061.94
2022-07-31T05:49:47.118Z,97065.41
2022-07-31T05:50:49.894Z,97067.00
2022-07-31T05:51:54.598Z,97062.50
2022-07-31T05:52:56.423Z,97064.66
2022-07-31T05:53:58.319Z,97066.50
2022-07-31T05:55:00.151Z,97064.59
2022-07-31T05:56:02.074Z,97071.75
2022-07-31T05:57:04.105Z,97067.53
2022-07-31T05:58:06.290Z,97063.81
2022-07-31T05:59:08.146Z,97067.78
2022-07-31T06:00:10.225Z,97070.44
2022-07-31T06:01:13.501Z,97070.19
2022-07-31T06:02:16.311Z,97074.16
2022-07-31T06:03:23.487Z,97070.25
2022-07-31T06:04:25.304Z,97073.44
2022-07-31T06:05:28.388Z,97066.03
2022-07-31T06:06:30.245Z,97067.34
2022-07-31T06:07:32.039Z,97067.13
2022-07-31T06:08:35.592Z,97067.91
2022-07-31T06:09:37.502Z,97060.50
2022-07-31T06:10:39.290Z,97062.06
2022-07-31T06:11:41.178Z,97066.09
2022-07-31T06:12:43.025Z,97063.44
2022-07-31T06:13:44.907Z,97061.81
2022-07-31T06:14:46.789Z,97073.78
2022-07-31T06:15:49.382Z,97074.34
2022-07-31T06:16:53.483Z,97077.53
2022-07-31T06:17:55.500Z,97071.19
2022-07-31T06:18:57.340Z,97072.78
2022-07-31T06:19:59.160Z,97068.81
2022-07-31T06:21:01.007Z,97073.03
2022-07-31T06:22:03.047Z,97071.47
2022-07-31T06:23:23.082Z,97083.38
2022-07-31T06:24:26.881Z,97077.53
2022-07-31T06:25:31.965Z,97078.56
2022-07-31T06:26:40.824Z,97076.19
2022-07-31T06:27:44.083Z,97074.88
2022-07-31T06:28:50.540Z,97073.81
2022-07-31T06:29:52.449Z,97078.63
2022-07-31T06:30:54.264Z,97083.38
2022-07-31T06:31:56.195Z,97079.44
2022-07-31T06:32:58.019Z,97079.97
2022-07-31T06:33:59.870Z,97082.38
2022-07-31T06:35:02.260Z,97072.31
2022-07-31T06:36:04.114Z,97074.47
2022-07-31T06:37:05.909Z,97075.00
2022-07-31T06:38:07.786Z,97078.19
2022-07-31T06:39:09.630Z,97079.75
2022-07-31T06:40:12.094Z,97076.06
2022-07-31T06:41:33.824Z,97077.66
2022-07-31T06:42:35.624Z,97080.84
2022-07-31T06:43:37.575Z,97081.09
2022-07-31T06:44:43.213Z,97083.50
2022-07-31T06:45:51.914Z,97081.38
2022-07-31T06:46:54.285Z,97081.66
2022-07-31T06:47:56.178Z,97083.00
2022-07-31T06:48:58.150Z,97081.16
2022-07-31T06:50:00.002Z,97084.34
2022-07-31T06:51:28.985Z,97087.78
2022-07-31T06:52:23.639Z,97086.19
2022-07-31T06:53:26.987Z,97085.16
2022-07-31T06:54:28.838Z,97083.28
2022-07-31T06:55:30.598Z,97087.25
2022-07-31T06:56:33.012Z,97086.22
2022-07-31T06:57:35.312Z,97079.84
2022-07-31T06:58:37.130Z,97080.91
2022-07-31T06:59:40.698Z,97081.41
2022-07-31T07:00:42.662Z,97085.69
2022-07-31T07:01:44.560Z,97076.66
2022-07-31T07:02:46.425Z,97082.78
2022-07-31T07:03:48.301Z,97083.81
2022-07-31T07:05:04.814Z,97078.28
2022-07-31T07:06:08.207Z,97084.09
2022-07-31T07:07:10.011Z,97071.66
2022-07-31T07:08:11.859Z,97076.16
2022-07-31T07:09:13.669Z,97079.59
2022-07-31T07:10:15.574Z,97079.34
2022-07-31T07:11:17.521Z,97078.56
2022-07-31T07:12:19.229Z,97084.09
2022-07-31T07:13:24.288Z,97085.16
2022-07-31T07:14:46.014Z,97084.66
2022-07-31T07:15:47.844Z,97085.19
2022-07-31T07:16:49.683Z,97081.22
2022-07-31T07:17:51.992Z,97071.94
2022-07-31T07:18:53.804Z,97076.19
2022-07-31T07:19:57.997Z,97071.69
2022-07-31T07:20:59.859Z,97065.06
2022-07-31T07:22:02.022Z,97067.97
2022-07-31T07:23:04.125Z,97073.00
2022-07-31T07:24:06.125Z,97063.97
2022-07-31T07:25:08.483Z,97073.28
2022-07-31T07:26:10.546Z,97072.75
2022-07-31T07:27:12.392Z,97074.38
2022-07-31T07:28:30.771Z,97071.47
2022-07-31T07:29:33.297Z,97066.16
2022-07-31T07:30:35.232Z,97060.84
2022-07-31T07:31:37.600Z,97064.81
2022-07-31T07:32:39.747Z,97066.41
2022-07-31T07:33:42.884Z,97066.94
2022-07-31T07:34:44.920Z,97057.91
2022-07-31T07:35:47.126Z,97057.66
2022-07-31T07:36:49.053Z,97052.38
2022-07-31T07:37:50.900Z,97051.59
2022-07-31T07:38:55.195Z,97049.72
2022-07-31T07:39:57.720Z,97045.22
2022-07-31T07:41:05.473Z,97058.22
2022-07-31T07:42:07.574Z,97060.59
2022-07-31T07:43:09.598Z,97056.63
2022-07-31T07:44:11.418Z,97055.59
2022-07-31T07:45:13.955Z,97049.75
2022-07-31T07:46:15.787Z,97043.63
2022-07-31T07:47:18.150Z,97047.34
2022-07-31T07:48:19.954Z,97047.34
2022-07-31T07:49:22.291Z,97049.75
2022-07-31T07:50:26.861Z,97047.09
2022-07-31T07:51:31.386Z,97048.69
2022-07-31T07:52:33.874Z,97051.84
2022-07-31T07:53:37.133Z,97048.16
2022-07-31T07:54:39.160Z,97050.00
2022-07-31T07:55:40.930Z,97050.81
2022-07-31T07:56:45.414Z,97046.06
2022-07-31T07:57:47.358Z,97054.53
2022-07-31T07:58:49.452Z,97045.50
2022-07-31T07:59:51.349Z,97047.38
2022-07-31T08:00:53.349Z,97049.75
2022-07-31T08:01:55.281Z,97047.13
2022-07-31T08:03:46.823Z,97042.59
2022-07-31T08:04:18.950Z,97043.41
2022-07-31T08:05:20.792Z,97048.16
2022-07-31T08:06:23.650Z,97047.13
2022-07-31T08:07:42.679Z,97055.59
2022-07-31T08:08:44.879Z,97049.78
2022-07-31T08:09:46.690Z,97051.41
2022-07-31T08:10:48.698Z,97049.78
2022-07-31T08:11:50.720Z,97049.78
2022-07-31T08:12:55.072Z,97045.03
2022-07-31T08:13:57.354Z,97039.47
2022-07-31T08:14:59.264Z,97041.03
2022-07-31T08:16:01.119Z,97048.75
2022-07-31T08:17:02.918Z,97043.97
2022-07-31T08:18:04.789Z,97043.72
2022-07-31T08:19:06.637Z,97036.28
2022-07-31T08:20:08.859Z,97050.09
2022-07-31T08:21:10.740Z,97048.75
2022-07-31T08:22:12.895Z,97047.19
2022-07-31T08:23:18.159Z,97046.63
2022-07-31T08:24:20.214Z,97046.38
2022-07-31T08:25:22.135Z,97042.41
2022-07-31T08:26:23.943Z,97038.41
2022-07-31T08:27:40.377Z,97045.56
2022-07-31T08:28:50.014Z,97039.25
2022-07-31T08:29:53.606Z,97037.09
2022-07-31T08:30:58.673Z,97037.13
2022-07-31T08:32:00.681Z,97032.34
2022-07-31T08:33:03.058Z,97032.31
2022-07-31T08:34:05.352Z,97027.53
2022-07-31T08:35:07.507Z,97026.72
2022-07-31T08:36:09.622Z,97031.75
2022-07-31T08:38:01.304Z,97037.59
2022-07-31T08:38:33.228Z,97036.53
2022-07-31T08:39:35.655Z,97035.75
2022-07-31T08:40:43.064Z,97036.03
2022-07-31T08:41:46.034Z,97028.06
2022-07-31T08:42:48.067Z,97031.50
2022-07-31T08:44:02.477Z,97027.25
2022-07-31T08:45:06.829Z,97026.97
2022-07-31T08:46:09.466Z,97030.16
2022-07-31T08:47:12.587Z,97033.88
2022-07-31T08:48:14.861Z,97026.44
2022-07-31T08:49:17.612Z,97023.25
2022-07-31T08:50:19.714Z,97022.16
2022-07-31T08:51:23.043Z,97019.50
2022-07-31T08:52:25.787Z,97018.69
2022-07-31T08:53:29.569Z,97011.50
2022-07-31T08:54:32.590Z,97024.28
2022-07-31T08:55:55.592Z,97016.84
2022-07-31T08:56:56.357Z,97018.44
2022-07-31T08:57:58.241Z,97020.00
2022-07-31T08:59:00.083Z,97013.34
2022-07-31T09:00:03.257Z,97012.56
2022-07-31T09:01:05.255Z,97012.00
2022-07-31T09:02:07.614Z,97013.31
2022-07-31T09:03:09.500Z,97011.44
2022-07-31T09:04:11.713Z,97005.03
2022-07-31T09:05:13.529Z,97005.53
2022-07-31T09:06:15.449Z,97013.97
2022-07-31T09:07:17.283Z,97006.03
2022-07-31T09:08:19.148Z,97007.91
2022-07-31T09:09:21.272Z,97013.44
2022-07-31T09:10:25.116Z,97002.81
2022-07-31T09:11:27.014Z,97000.16
2022-07-31T09:12:33.227Z,97002.81
2022-07-31T09:13:36.269Z,97001.50
2022-07-31T09:14:38.318Z,97003.63
2022-07-31T09:15:40.547Z,97003.63
2022-07-31T09:16:50.635Z,97003.63
2022-07-31T09:17:54.108Z,96998.81
2022-07-31T09:18:57.399Z,97004.94
2022-07-31T09:20:01.669Z,96995.06
2022-07-31T09:22:09.903Z,97007.53
2022-07-31T09:23:13.130Z,97008.09
2022-07-31T09:24:26.062Z,96999.28
2022-07-31T09:25:27.991Z,96995.84
2022-07-31T09:26:33.660Z,97003.25
2022-07-31T09:27:35.675Z,96998.41
2022-07-31T09:28:38.829Z,96997.59
2022-07-31T09:29:41.600Z,97001.81
2022-07-31T09:30:55.742Z,96997.84
2022-07-31T09:32:07.466Z,96990.44
2022-07-31T09:33:13.158Z,97001.59
2022-07-31T09:34:14.941Z,97006.09
2022-07-31T09:35:16.786Z,96996.81
2022-07-31T09:36:22.533Z,97000.72
2022-07-31T09:37:26.390Z,97006.28
2022-07-31T09:38:38.723Z,96999.38
2022-07-31T09:39:51.890Z,97003.09
2022-07-31T09:40:57.314Z,96992.47
2022-07-31T09:42:01.770Z,96990.31
2022-07-31T09:43:25.910Z,97000.88
2022-07-31T09:44:38.089Z,96991.59
2022-07-31T09:45:48.451Z,96985.72
2022-07-31T09:46:51.634Z,96991.75
2022-07-31T09:48:03.254Z,96993.53
2022-07-31T09:49:05.147Z,96993.03
2022-07-31T09:50:07.724Z,96988.25
2022-07-31T09:51:09.627Z,96985.34
2022-07-31T09:52:19.060Z,96980.25
2022-07-31T09:53:21.043Z,96987.47
2022-07-31T09:54:26.696Z,96989.38
2022-07-31T09:55:29.097Z,96988.34
2022-07-31T09:56:31.489Z,96988.00
2022-07-31T09:57:34.779Z,96988.75
2022-07-31T09:58:36.617Z,96977.25
2022-07-31T09:59:38.742Z,96982.03
2022-07-31T10:00:41.224Z,96975.63
2022-07-31T10:01:44.041Z,96982.22
2022-07-31T10:02:45.934Z,96981.44
2022-07-31T10:03:50.645Z,96974.25
2022-07-31T10:04:53.887Z,96966.84
2022-07-31T10:05:56.838Z,96972.13
2022-07-31T10:07:00.832Z,96971.22
2022-07-31T10:08:02.770Z,96975.50
2022-07-31T10:09:05.098Z,96971.22
2022-07-31T10:10:08.325Z,96966.47
2022-07-31T10:11:16.629Z,96973.66
2022-07-31T10:12:20.069Z,96977.56
2022-07-31T10:13:23.371Z,96976.97
2022-07-31T10:14:28.776Z,96974.19
2022-07-31T10:15:33.399Z,96966.06
2022-07-31T10:16:36.658Z,96970.91
2022-07-31T10:17:41.642Z,96976.03
2022-07-31T10:18:46.262Z,96965.91
2022-07-31T10:19:48.489Z,96960.34
2022-07-31T10:20:53.363Z,96960.16
2022-07-31T10:21:57.044Z,96961.72
2022-07-31T10:23:05.178Z,96966.53
2022-07-31T10:24:07.744Z,96963.53
2022-07-31T10:25:12.955Z,96968.97
2022-07-31T10:26:15.227Z,96962.13
2022-07-31T10:27:19.217Z,96964.25
2022-07-31T10:28:21.672Z,96961.69
2022-07-31T10:29:23.486Z,96966.69
2022-07-31T10:30:28.020Z,96961.16
2022-07-31T10:31:31.605Z,96970.81
2022-07-31T10:32:34.015Z,96968.06
2022-07-31T10:33:44.741Z,96965.59
2022-07-31T10:34:47.302Z,96962.09
2022-07-31T10:36:27.821Z,96968.25
2022-07-31T10:37:35.359Z,96958.41
2022-07-31T10:38:41.965Z,96963.44
2022-07-31T10:39:43.764Z,96963.22
2022-07-31T10:40:49.722Z,96960.31
2022-07-31T10:42:06.696Z,96960.84
2022-07-31T10:43:17.361Z,96964.09
2022-07-31T10:44:23.004Z,96970.31
2022-07-31T10:45:24.922Z,96963.66
2022-07-31T10:46:27.692Z,96966.06
2022-07-31T10:47:29.530Z,96961.88
2022-07-31T10:48:31.432Z,96966.69
2022-07-31T10:49:43.187Z,96967.28
2022-07-31T10:50:45.570Z,96956.63
2022-07-31T10:51:51.463Z,96959.69
2022-07-31T10:52:58.626Z,96958.09
2022-07-31T10:54:03.386Z,96958.94
2022-07-31T10:55:35.850Z,96962.97
2022-07-31T10:56:42.884Z,96968.06
2022-07-31T10:57:55.232Z,96966.50
2022-07-31T10:58:59.455Z,96964.13
2022-07-31T11:00:12.287Z,96961.50
2022-07-31T11:01:17.399Z,96971.34
2022-07-31T11:02:33.163Z,96966.03
2022-07-31T11:03:48.861Z,96966.28
2022-07-31T11:04:52.001Z,96963.66
2022-07-31T11:06:01.982Z,96966.31
2022-07-31T11:07:14.688Z,96976.66
2022-07-31T11:08:16.607Z,96966.28
2022-07-31T11:09:25.338Z,96977.22
2022-07-31T11:10:27.200Z,96971.91
2022-07-31T11:11:33.231Z,96965.53
2022-07-31T11:12:35.070Z,96967.66
2022-07-31T11:13:55.572Z,96965.78
2022-07-31T11:14:58.519Z,96969.63
2022-07-31T11:16:04.678Z,96968.31
2022-07-31T11:17:07.422Z,96964.09
2022-07-31T11:18:28.666Z,96965.97
2022-07-31T11:19:41.337Z,96951.22
2022-07-31T11:20:47.027Z,96955.75
2022-07-31T11:21:48.881Z,96953.41
2022-07-31T11:23:01.609Z,96958.16
2022-07-31T11:24:16.566Z,96954.47
2022-07-31T11:25:19.146Z,96957.34
2022-07-31T11:26:33.714Z,96957.34
2022-07-31T11:27:42.610Z,96949.09
2022-07-31T11:28:45.074Z,96963.19
2022-07-31T11:29:59.265Z,96956.03
2022-07-31T11:31:06.419Z,96964.25
2022-07-31T11:32:25.156Z,96967.88
2022-07-31T11:33:42.073Z,96958.88
2022-07-31T11:34:45.814Z,96964.19
2022-07-31T11:35:47.616Z,96960.94
2022-07-31T11:36:51.649Z,96958.56
2022-07-31T11:37:58.024Z,96967.88
2022-07-31T11:39:00.911Z,96966.53
2022-07-31T11:40:06.729Z,96964.69
2022-07-31T11:41:09.471Z,96956.09
2022-07-31T11:42:11.632Z,96952.41
2022-07-31T11:43:29.247Z,96948.84
2022-07-31T11:44:31.038Z,96948.44
2022-07-31T11:45:33.434Z,96940.22
2022-07-31T11:46:38.143Z,96948.94
2022-07-31T11:48:11.168Z,96951.22
2022-07-31T11:49:03.166Z,96952.00
2022-07-31T11:50:05.210Z,96943.66
2022-07-31T11:51:07.081Z,96955.59
2022-07-31T11:52:10.123Z,96945.06
2022-07-31T11:53:39.460Z,96945.75
2022-07-31T11:54:42.512Z,96947.41
2022-07-31T11:55:58.358Z,96945.06
2022-07-31T11:57:00.306Z,96950.47
2022-07-31T11:58:02.148Z,96955.81
2022-07-31T11:59:04.425Z,96951.56
2022-07-31T12:00:26.701Z,96957.47
2022-07-31T12:01:31.319Z,96959.16
2022-07-31T12:02:33.363Z,96953.59
2022-07-31T12:03:39.300Z,96957.66
2022-07-31T12:04:41.148Z,96962.75
2022-07-31T12:05:49.974Z,96951.56
2022-07-31T12:06:56.287Z,96957.50
2022-07-31T12:07:58.244Z,96957.00
2022-07-31T12:09:00.201Z,96951.72
2022-07-31T12:10:03.761Z,96955.81
2022-07-31T12:11:08.179Z,96953.53
2022-07-31T12:12:12.145Z,96954.09
2022-07-31T12:13:18.580Z,96954.97
2022-07-31T12:14:33.976Z,96954.19
2022-07-31T12:15:35.979Z,96954.19
2022-07-31T12:16:41.842Z,96950.41
2022-07-31T12:17:43.694Z,96952.00
2022-07-31T12:18:54.147Z,96950.13
2022-07-31T12:20:06.202Z,96952.53
2022-07-31T12:21:09.440Z,96950.41
2022-07-31T12:22:15.019Z,96946.69
2022-07-31T12:23:40.667Z,96952.00
2022-07-31T12:24:39.761Z,96947.97
2022-07-31T12:25:46.281Z,96948.25
2022-07-31T12:26:52.333Z,96947.19
2022-07-31T12:27:54.856Z,96943.22
2022-07-31T12:28:57.571Z,96944.28
2022-07-31T12:29:59.379Z,96953.41
2022-07-31T12:31:01.306Z,96954.19
2022-07-31T12:32:03.864Z,96955.75
2022-07-31T12:33:07.022Z,96957.06
2022-07-31T12:34:08.805Z,96955.97
2022-07-31T12:35:10.691Z,96947.19
2022-07-31T12:36:16.426Z,96952.81
2022-07-31T12:37:19.636Z,96948.84
2022-07-31T12:38:45.076Z,96954.75
2022-07-31T12:39:59.250Z,96950.00
2022-07-31T12:41:03.624Z,96950.56